Time;durP1;ratioP1;P1;durP2;ratioP2;P2;SDS_P1;SDS_P2;PMS_P1;PMS_P2;Temp;Humidity;BMP_temperature;BMP_pressure;BME280_temperature;BME280_humidity;BME280_pressure;Samples;Min_cycle;Max_cycle;Signal;HPM_P1;HPM_P2
2024/01/31 00:01:46;;;;;;;9.48;5.30;;;;;;;17.07;55.17;98205.16;10487970;28;20402;-41
2024/01/31 00:06:50;;;;;;;9.02;5.03;;;;;;;17.11;55.14;98209.47;10488432;28;20029;-39
2024/01/31 00:11:51;;;;;;;10.63;5.18;;;;;;;17.08;54.91;98199.28;10488297;28;20032;-38
2024/01/31 00:16:51;;;;;;;10.90;5.43;;;;;;;17.08;55.00;98204.34;10488213;28;20403;-37
2024/01/31 00:21:52;;;;;;;10.48;5.22;;;;;;;17.08;54.92;98205.19;10497493;28;20028;-38
2024/01/31 00:26:52;;;;;;;6.40;4.20;;;;;;;17.07;55.11;98202.63;10492643;28;20040;-40
2024/01/31 00:31:52;;;;;;;9.43;4.87;;;;;;;17.08;55.50;98215.31;10491014;28;20032;-37
2024/01/31 00:36:53;;;;;;;8.67;4.73;;;;;;;17.08;55.45;98209.41;10495753;28;20028;-39
2024/01/31 00:41:54;;;;;;;8.33;4.60;;;;;;;17.06;54.85;98198.38;10497196;28;20035;-38
2024/01/31 00:46:54;;;;;;;6.30;4.63;;;;;;;17.07;55.13;98210.22;10488459;28;20033;-40
2024/01/31 00:51:55;;;;;;;9.60;5.20;;;;;;;17.07;55.06;98203.47;10500424;28;20498;-37
2024/01/31 00:56:55;;;;;;;7.20;4.53;;;;;;;17.08;55.01;98206.88;10491574;28;20294;-40
2024/01/31 01:01:55;;;;;;;8.47;4.50;;;;;;;17.07;55.43;98212.75;10487043;28;20027;-38
2024/01/31 01:06:56;;;;;;;7.03;4.43;;;;;;;17.08;55.38;98214.47;10494028;28;20133;-36
2024/01/31 01:11:56;;;;;;;7.03;4.57;;;;;;;17.08;55.14;98209.41;10491466;28;20040;-39
2024/01/31 01:16:56;;;;;;;8.27;5.20;;;;;;;17.06;54.91;98205.97;10489417;28;20040;-41
2024/01/31 01:21:57;;;;;;;6.73;4.57;;;;;;;17.07;55.19;98212.75;10495204;28;20306;-37
2024/01/31 01:26:57;;;;;;;10.43;4.83;;;;;;;17.08;55.09;98222.06;10490615;28;20116;-41
2024/01/31 01:31:57;;;;;;;8.20;4.17;;;;;;;17.07;55.48;98222.88;10489667;28;20115;-38
2024/01/31 01:36:58;;;;;;;10.67;5.00;;;;;;;17.06;55.76;98216.09;10493983;28;20454;-39
2024/01/31 01:41:58;;;;;;;7.73;4.37;;;;;;;17.07;55.30;98217.81;10489781;28;20035;-40
2024/01/31 01:47:00;;;;;;;8.23;5.30;;;;;;;17.06;54.76;98219.47;10493692;28;20043;-35
2024/01/31 01:52:01;;;;;;;8.20;5.35;;;;;;;17.06;55.43;98231.28;10493779;28;20035;-38
2024/01/31 01:57:02;;;;;;;5.85;4.43;;;;;;;17.06;55.00;98222.00;10489249;28;20452;-36
2024/01/31 02:02:03;;;;;;;7.70;4.32;;;;;;;17.05;55.07;98214.34;10487846;28;20055;-37
2024/01/31 02:07:03;;;;;;;6.35;4.43;;;;;;;17.06;55.10;98213.56;10491107;28;20403;-40
2024/01/31 02:12:04;;;;;;;9.30;4.72;;;;;;;17.04;54.99;98203.41;10494683;28;20032;-38
2024/01/31 02:17:04;;;;;;;5.45;3.65;;;;;;;17.05;54.96;98200.03;10488734;28;20036;-40
2024/01/31 02:22:06;;;;;;;7.23;4.37;;;;;;;17.06;55.03;98201.75;10493550;28;20114;-38
2024/01/31 02:27:06;;;;;;;6.18;4.07;;;;;;;17.06;55.15;98194.16;10487581;28;20558;-38
2024/01/31 02:32:07;;;;;;;6.10;3.87;;;;;;;17.05;55.32;98194.09;10492935;28;20054;-35
2024/01/31 02:37:07;;;;;;;6.30;4.28;;;;;;;17.04;54.58;98192.41;10492432;28;20071;-36
2024/01/31 02:42:08;;;;;;;7.07;3.53;;;;;;;17.04;55.26;98198.34;10487677;28;20036;-36
2024/01/31 02:47:08;;;;;;;6.70;3.87;;;;;;;17.05;54.92;98199.16;10486074;28;20051;-38
2024/01/31 02:52:08;;;;;;;5.53;3.63;;;;;;;17.05;55.26;98201.69;10481485;28;20032;-39
2024/01/31 02:57:09;;;;;;;5.57;3.60;;;;;;;17.04;55.38;98207.56;10487526;28;20044;-36
2024/01/31 03:02:09;;;;;;;5.57;3.97;;;;;;;17.05;55.42;98199.16;10485277;28;20418;-37
2024/01/31 03:07:13;;;;;;;5.47;3.00;;;;;;;17.04;55.08;98205.06;10479608;28;20379;-38
2024/01/31 03:12:13;;;;;;;4.97;3.65;;;;;;;17.04;55.46;98190.75;10484597;28;20041;-37
2024/01/31 03:17:13;;;;;;;6.27;3.50;;;;;;;17.05;55.02;98189.94;10484958;28;20045;-39
2024/01/31 03:22:14;;;;;;;4.77;3.10;;;;;;;17.05;55.21;98191.59;10476491;28;20039;-36
2024/01/31 03:27:16;;;;;;;6.67;3.17;;;;;;;17.04;55.20;98190.75;10486564;28;20625;-40
2024/01/31 03:32:16;;;;;;;4.72;3.10;;;;;;;17.03;55.43;98190.69;10483992;28;20050;-37
2024/01/31 03:37:17;;;;;;;7.50;4.23;;;;;;;17.04;55.22;98192.41;10479131;28;20036;-35
2024/01/31 03:42:17;;;;;;;4.87;3.20;;;;;;;17.04;55.17;98182.28;10486679;28;20067;-39
2024/01/31 03:47:17;;;;;;;6.67;3.17;;;;;;;17.03;55.27;98191.56;10486625;28;20416;-37
2024/01/31 03:52:18;;;;;;;4.70;3.43;;;;;;;17.04;55.72;98197.47;10488698;28;20658;-38
2024/01/31 03:57:19;;;;;;;5.67;3.53;;;;;;;17.03;55.49;98201.69;10494425;28;20040;-41
2024/01/31 04:02:22;;;;;;;4.35;3.20;;;;;;;17.01;55.39;98197.38;10490266;28;20028;-37
2024/01/31 04:07:22;;;;;;;4.03;3.20;;;;;;;17.03;55.40;98196.63;10485384;28;20035;-37
2024/01/31 04:12:22;;;;;;;3.93;2.63;;;;;;;17.03;55.90;98193.22;10493844;28;20031;-39
2024/01/31 04:17:23;;;;;;;5.40;3.57;;;;;;;17.03;55.93;98194.09;10485632;28;20036;-36
2024/01/31 04:22:23;;;;;;;4.40;2.93;;;;;;;17.01;55.71;98184.72;10481711;28;20036;-40
2024/01/31 04:27:23;;;;;;;5.83;2.80;;;;;;;17.02;55.30;98187.31;10492625;28;20029;-39
2024/01/31 04:32:24;;;;;;;5.50;3.47;;;;;;;17.03;55.28;98190.69;10488864;28;20522;-39
2024/01/31 04:37:24;;;;;;;3.47;2.70;;;;;;;17.01;55.44;98187.25;10485172;28;20525;-36
2024/01/31 04:42:25;;;;;;;5.97;3.00;;;;;;;17.04;55.52;98197.47;10492431;28;20509;-38
2024/01/31 04:47:25;;;;;;;5.87;2.97;;;;;;;17.03;55.51;98200.81;10486749;28;20475;-37
2024/01/31 04:52:26;;;;;;;5.72;3.33;;;;;;;17.02;55.83;98209.22;10485977;28;20024;-39
2024/01/31 04:57:26;;;;;;;5.95;3.33;;;;;;;17.03;55.27;98205.88;10490980;28;20029;-37
2024/01/31 05:02:27;;;;;;;5.17;3.13;;;;;;;17.03;55.46;98204.22;10487054;28;20574;-37
2024/01/31 05:07:27;;;;;;;4.50;2.90;;;;;;;17.03;55.37;98205.88;10488918;28;20355;-37
2024/01/31 05:12:27;;;;;;;5.03;3.10;;;;;;;17.03;55.15;98200.81;10491362;28;20029;-38
2024/01/31 05:17:28;;;;;;;5.27;3.03;;;;;;;16.97;55.78;98190.50;10482072;28;20032;-40
2024/01/31 05:22:28;;;;;;;4.77;3.30;;;;;;;17.07;55.51;98207.69;10481759;28;20796;-41
2024/01/31 05:27:28;;;;;;;3.47;2.47;;;;;;;17.05;55.90;98207.63;10489343;28;20036;-41
2024/01/31 05:32:30;;;;;;;5.13;2.70;;;;;;;17.04;55.65;98218.56;10490360;28;20029;-38
2024/01/31 05:37:31;;;;;;;5.35;2.83;;;;;;;17.04;55.34;98222.75;10481035;28;20063;-40
2024/01/31 05:42:31;;;;;;;4.53;2.70;;;;;;;17.08;54.88;98234.72;10485680;28;20707;-38
2024/01/31 05:47:32;;;;;;;4.20;2.27;;;;;;;17.05;52.95;98240.53;10483868;28;20032;-38
2024/01/31 05:52:32;;;;;;;6.53;3.20;;;;;;;17.04;52.42;98233.75;10486310;28;20551;-38
2024/01/31 05:57:33;;;;;;;4.87;3.23;;;;;;;17.04;51.79;98243.00;10488427;28;20286;-39
2024/01/31 06:02:33;;;;;;;3.85;2.50;;;;;;;17.05;54.49;98258.25;10487031;28;20101;-40
2024/01/31 06:07:34;;;;;;;5.50;2.57;;;;;;;17.08;53.49;98249.88;10486199;28;20051;-39
2024/01/31 06:12:34;;;;;;;5.85;3.35;;;;;;;17.07;55.92;98248.19;10484711;28;20487;-41
2024/01/31 06:17:34;;;;;;;7.17;3.47;;;;;;;17.05;55.96;98259.91;10485424;28;20097;-40
2024/01/31 06:22:35;;;;;;;5.77;2.67;;;;;;;17.03;55.84;98264.94;10485830;28;20772;-41
2024/01/31 06:27:36;;;;;;;9.07;3.83;;;;;;;17.07;55.89;98263.34;10486618;28;20159;-40
2024/01/31 06:32:47;;;;;;;11.13;3.75;;;;;;;17.07;55.22;98258.31;10486808;28;20267;-40
2024/01/31 06:37:47;;;;;;;8.40;3.38;;;;;;;17.05;55.84;98257.38;10486152;28;20020;-35
2024/01/31 06:42:48;;;;;;;10.43;3.70;;;;;;;16.95;56.06;98237.69;10487192;28;20045;-39
2024/01/31 06:47:48;;;;;;;5.28;3.08;;;;;;;17.02;56.06;98259.81;10483559;28;20029;-42
2024/01/31 06:52:49;;;;;;;10.47;2.97;;;;;;;16.96;55.69;98239.38;10486005;28;20453;-38
2024/01/31 06:57:49;;;;;;;9.63;3.17;;;;;;;17.01;55.38;98264.03;10489735;28;20024;-37
2024/01/31 07:02:52;;;;;;;6.20;2.50;;;;;;;17.01;55.24;98268.22;10484007;28;20033;-39
2024/01/31 07:07:53;;;;;;;6.88;2.65;;;;;;;17.01;55.63;98270.75;10486315;28;20033;-36
2024/01/31 07:12:53;;;;;;;6.80;3.70;;;;;;;17.00;55.15;98271.56;10487415;28;20035;-41
2024/01/31 07:17:53;;;;;;;7.93;2.77;;;;;;;16.98;55.21;98263.94;10483790;28;20037;-40
2024/01/31 07:22:54;;;;;;;7.27;2.73;;;;;;;16.99;55.39;98269.88;10485999;28;20115;-38
2024/01/31 07:27:54;;;;;;;4.77;2.53;;;;;;;16.98;55.19;98263.09;10486779;28;20040;-41
2024/01/31 07:32:54;;;;;;;5.13;2.63;;;;;;;16.98;54.87;98266.47;10485694;28;20243;-40
2024/01/31 07:37:55;;;;;;;5.50;2.80;;;;;;;16.96;54.99;98263.03;10485609;28;20063;-39
2024/01/31 07:42:55;;;;;;;4.22;2.40;;;;;;;16.97;54.87;98266.41;10486537;28;20647;-40
2024/01/31 07:47:59;;;;;;;5.53;2.83;;;;;;;16.95;55.18;98260.44;10486101;28;20438;-37
2024/01/31 07:52:59;;;;;;;5.68;2.38;;;;;;;16.97;54.55;98266.41;10481758;28;20086;-41
2024/01/31 07:57:59;;;;;;;3.80;2.60;;;;;;;16.99;55.06;98254.69;10487900;28;20089;-39
2024/01/31 08:03:00;;;;;;;5.23;3.00;;;;;;;16.98;55.16;98251.28;10486882;28;20046;-37
2024/01/31 08:08:00;;;;;;;5.57;2.20;;;;;;;16.97;55.15;98251.22;10485238;28;20029;-39
2024/01/31 08:13:00;;;;;;;2.00;1.77;;;;;;;16.98;55.15;98252.97;10478951;28;20044;-39
2024/01/31 08:18:01;;;;;;;3.47;2.57;;;;;;;16.98;55.16;98250.44;10487035;28;20119;-38
2024/01/31 08:23:02;;;;;;;13.32;2.53;;;;;;;16.97;54.62;98254.63;10484358;28;20111;-36
2024/01/31 08:28:02;;;;;;;7.25;2.40;;;;;;;16.96;54.83;98268.09;10485731;28;20036;-40
2024/01/31 08:33:03;;;;;;;4.20;2.45;;;;;;;16.97;54.78;98261.34;10492157;28;20060;-40
2024/01/31 08:38:03;;;;;;;4.82;2.05;;;;;;;16.97;55.04;98253.75;10491638;28;20570;-38
2024/01/31 08:43:04;;;;;;;4.00;2.22;;;;;;;16.96;55.00;98254.56;10492829;28;20403;-39
2024/01/31 08:48:05;;;;;;;4.85;2.17;;;;;;;16.96;54.84;98241.91;10492672;28;20508;-38
2024/01/31 08:53:05;;;;;;;4.55;2.42;;;;;;;16.96;54.71;98236.84;10490611;28;20482;-39
2024/01/31 08:58:05;;;;;;;4.20;1.77;;;;;;;16.97;54.74;98233.50;10491716;28;20562;-37
2024/01/31 09:03:06;;;;;;;3.23;1.93;;;;;;;16.96;55.12;98236.84;10493432;28;20408;-39
2024/01/31 09:08:06;;;;;;;7.13;2.73;;;;;;;16.95;54.65;98233.47;10489345;28;20668;-39
2024/01/31 09:13:06;;;;;;;3.43;1.70;;;;;;;16.96;54.81;98221.69;10487406;28;20032;-38
2024/01/31 09:18:07;;;;;;;4.43;2.30;;;;;;;16.96;55.05;98226.75;10493670;28;20290;-38
2024/01/31 09:23:08;;;;;;;2.97;1.70;;;;;;;16.97;55.03;98230.97;10489788;28;20032;-40
2024/01/31 09:28:08;;;;;;;2.45;2.10;;;;;;;16.96;54.94;98230.13;10491000;28;20714;-38
2024/01/31 09:33:11;;;;;;;3.50;1.80;;;;;;;16.96;54.88;98227.63;10490340;28;20051;-39
2024/01/31 09:38:12;;;;;;;3.88;2.25;;;;;;;16.95;54.60;98227.56;10488835;28;20707;-38
2024/01/31 09:43:12;;;;;;;3.77;1.77;;;;;;;16.98;54.53;98237.78;10489360;28;20048;-42
2024/01/31 09:48:13;;;;;;;2.87;1.83;;;;;;;16.96;54.31;98239.38;10489432;28;20044;-41
2024/01/31 09:53:14;;;;;;;3.42;1.77;;;;;;;16.97;54.38;98241.09;10487903;28;20291;-38
2024/01/31 09:58:15;;;;;;;2.00;1.60;;;;;;;16.96;54.21;98241.91;10491739;28;20038;-39
2024/01/31 10:03:15;;;;;;;2.87;1.80;;;;;;;16.97;54.32;98243.63;10490907;28;20037;-42
2024/01/31 10:08:15;;;;;;;2.70;1.63;;;;;;;16.96;54.48;98249.50;10488252;28;20043;-40
2024/01/31 10:13:16;;;;;;;3.20;1.63;;;;;;;16.96;54.34;98249.50;10488943;28;20028;-39
2024/01/31 10:18:17;;;;;;;2.77;1.83;;;;;;;16.95;54.14;98238.53;10491493;28;20764;-38
2024/01/31 10:23:17;;;;;;;4.40;1.77;;;;;;;16.96;54.35;98235.19;10487464;28;20101;-40
2024/01/31 10:28:20;;;;;;;1.90;1.60;;;;;;;16.95;54.56;98237.69;10490089;28;20036;-37
2024/01/31 10:33:22;;;;;;;2.03;1.60;;;;;;;16.96;54.07;98239.38;10488180;28;20366;-39
2024/01/31 10:38:22;;;;;;;2.63;1.55;;;;;;;16.96;54.31;98234.31;10486726;28;20040;-40
2024/01/31 10:43:24;;;;;;;2.20;1.65;;;;;;;16.97;54.15;98223.38;10487136;28;20043;-38
2024/01/31 10:48:25;;;;;;;1.92;1.70;;;;;;;16.95;54.64;98217.44;10491927;28;20491;-38
2024/01/31 10:53:29;;;;;;;3.95;1.88;;;;;;;16.96;54.58;98214.09;10485375;28;20077;-38
2024/01/31 10:58:30;;;;;;;2.55;1.58;;;;;;;16.96;54.27;98204.84;10487871;28;20093;-36
2024/01/31 11:03:31;;;;;;;2.03;1.20;;;;;;;16.96;54.41;98201.44;10487113;28;20078;-38
2024/01/31 11:08:32;;;;;;;1.70;1.60;;;;;;;16.95;54.10;98193.00;10485902;28;20033;-39
2024/01/31 11:13:35;;;;;;;1.83;1.40;;;;;;;16.97;54.13;98190.50;10485638;28;20029;-36
2024/01/31 11:18:35;;;;;;;2.42;1.40;;;;;;;16.91;53.69;98185.28;10491185;28;20502;-38
2024/01/31 11:23:36;;;;;;;2.53;1.23;;;;;;;16.94;54.42;98166.00;10488427;28;20032;-37
2024/01/31 11:28:42;;;;;;;3.15;1.98;;;;;;;16.96;54.51;98161.81;10486968;28;20044;-39
2024/01/31 11:33:42;;;;;;;2.25;1.85;;;;;;;16.97;55.15;98150.88;10484583;28;20114;-38
2024/01/31 11:38:43;;;;;;;3.45;2.15;;;;;;;16.99;55.24;98143.34;10492820;28;20039;-39
2024/01/31 11:43:43;;;;;;;2.37;1.50;;;;;;;16.99;52.67;98125.66;10483587;28;20120;-39
2024/01/31 11:48:43;;;;;;;3.77;2.30;;;;;;;17.04;55.20;98114.84;10486193;28;20206;-36
2024/01/31 11:53:44;;;;;;;8.00;2.30;;;;;;;17.03;54.88;98103.00;10484694;28;20036;-38
2024/01/31 11:58:44;;;;;;;3.03;2.13;;;;;;;17.03;55.02;98092.00;10482227;28;20410;-36
2024/01/31 12:03:44;;;;;;;9.30;1.80;;;;;;;17.04;54.22;98091.19;10485819;28;20036;-41
2024/01/31 12:08:46;;;;;;;8.35;3.03;;;;;;;17.05;54.57;98092.91;10490232;28;20282;-38
2024/01/31 12:13:47;;;;;;;5.47;2.67;;;;;;;17.06;54.31;98082.84;10489296;28;20025;-38
2024/01/31 12:18:58;;;;;;;5.40;2.43;;;;;;;17.06;53.55;98085.34;10497383;28;20040;-36
2024/01/31 12:23:58;;;;;;;7.75;2.60;;;;;;;17.09;53.12;98085.44;10492050;28;20040;-40
2024/01/31 12:28:59;;;;;;;3.47;1.77;;;;;;;17.09;52.61;98077.84;10489726;28;20064;-35
2024/01/31 12:34:00;;;;;;;6.20;2.47;;;;;;;17.16;51.96;98073.81;10490370;28;20036;-38
2024/01/31 12:39:00;;;;;;;9.13;3.00;;;;;;;17.12;50.99;98061.88;10499609;28;20044;-37
2024/01/31 12:44:00;;;;;;;4.57;3.07;;;;;;;17.16;53.79;98068.75;10489680;28;20098;-38
2024/01/31 12:49:01;;;;;;;3.57;2.20;;;;;;;17.16;53.59;98073.81;10492289;28;20112;-37
2024/01/31 12:54:01;;;;;;;6.33;3.33;;;;;;;17.16;51.96;98066.22;10493226;28;20044;-37
2024/01/31 12:59:01;;;;;;;5.60;3.27;;;;;;;17.18;51.50;98057.00;10491792;28;20415;-38
2024/01/31 13:04:02;;;;;;;8.17;3.30;;;;;;;17.21;49.42;98062.13;10489766;28;20303;-38
2024/01/31 13:09:02;;;;;;;4.03;3.13;;;;;;;17.22;49.30;98053.72;10494704;28;20800;-40
2024/01/31 13:14:03;;;;;;;4.28;2.97;;;;;;;17.22;49.19;98053.72;10490228;28;20433;-39
2024/01/31 13:19:04;;;;;;;12.57;3.33;;;;;;;17.19;50.38;98053.66;10495723;28;20125;-38
2024/01/31 13:24:04;;;;;;;3.85;2.47;;;;;;;17.22;50.10;98061.31;10494214;28;20291;-34
2024/01/31 13:29:05;;;;;;;8.77;2.97;;;;;;;17.23;49.72;98058.00;10490845;28;20033;-38
2024/01/31 13:34:05;;;;;;;6.30;2.63;;;;;;;17.23;49.88;98050.41;10490430;28;20031;-39
2024/01/31 13:39:06;;;;;;;6.53;2.30;;;;;;;17.23;49.63;98051.22;10494298;28;20046;-40
2024/01/31 13:44:06;;;;;;;4.43;2.50;;;;;;;17.22;50.09;98043.59;10491149;28;20126;-39
2024/01/31 13:49:06;;;;;;;3.93;2.10;;;;;;;17.23;50.15;98052.94;10492748;28;20040;-36
2024/01/31 13:54:07;;;;;;;6.27;2.93;;;;;;;17.11;50.15;98042.47;10491149;28;20036;-38
2024/01/31 13:59:07;;;;;;;5.20;3.17;;;;;;;17.10;50.25;98051.75;10488459;28;20105;-39
2024/01/31 14:04:08;;;;;;;8.40;2.63;;;;;;;17.16;50.09;98051.03;10489581;28;20043;-39
2024/01/31 14:09:08;;;;;;;8.75;2.53;;;;;;;17.17;50.36;98052.75;10493034;28;20340;-36
2024/01/31 14:14:11;;;;;;;4.80;2.63;;;;;;;17.17;50.42;98048.53;10487880;28;20111;-39
2024/01/31 14:19:11;;;;;;;4.82;2.13;;;;;;;17.18;50.63;98047.75;10494014;28;20574;-38
2024/01/31 14:24:12;;;;;;;3.23;2.23;;;;;;;17.18;51.02;98045.22;10492035;28;20047;-38
2024/01/31 14:29:14;;;;;;;3.95;2.38;;;;;;;17.19;50.99;98046.06;10485909;28;20036;-38
2024/01/31 14:34:14;;;;;;;5.03;2.38;;;;;;;17.17;50.85;98043.47;10487635;28;20032;-38
2024/01/31 14:39:15;;;;;;;5.88;2.42;;;;;;;17.21;51.13;98046.94;10490931;28;20020;-40
2024/01/31 14:44:15;;;;;;;2.83;2.03;;;;;;;17.20;51.13;98046.09;10487672;28;20037;-39
2024/01/31 14:49:15;;;;;;;6.40;2.13;;;;;;;17.22;50.96;98051.19;10492423;28;20305;-37
2024/01/31 14:54:16;;;;;;;3.72;2.40;;;;;;;17.22;50.36;98051.19;10487252;28;20398;-37
2024/01/31 14:59:17;;;;;;;2.80;1.80;;;;;;;17.22;50.20;98053.72;10484253;28;20048;-38
2024/01/31 15:04:18;;;;;;;3.50;2.20;;;;;;;17.24;50.32;98059.69;10487272;28;20302;-38
2024/01/31 15:09:18;;;;;;;4.67;2.30;;;;;;;17.24;50.42;98059.69;10491846;28;20051;-40
2024/01/31 15:14:19;;;;;;;5.03;3.33;;;;;;;17.14;51.21;98065.34;10484813;28;20353;-36
2024/01/31 15:19:19;;;;;;;10.33;3.93;;;;;;;16.95;51.71;98063.97;10492097;28;20047;-38
2024/01/31 15:24:19;;;;;;;9.47;3.20;;;;;;;17.10;51.73;98076.19;10490788;28;20544;-39
2024/01/31 15:29:20;;;;;;;7.47;2.37;;;;;;;17.15;49.77;98072.13;10484072;28;20282;-37
2024/01/31 15:34:20;;;;;;;4.03;2.20;;;;;;;17.17;49.66;98070.47;10482544;28;20043;-37
2024/01/31 15:39:21;;;;;;;10.27;2.90;;;;;;;17.16;50.93;98056.09;10492946;28;20040;-38
2024/01/31 15:44:22;;;;;;;4.22;1.80;;;;;;;17.18;49.48;98067.13;10494438;28;20040;-39
2024/01/31 15:49:28;;;;;;;4.80;1.95;;;;;;;17.23;49.65;98065.59;10493518;28;20649;-38
2024/01/31 15:54:28;;;;;;;4.37;1.83;;;;;;;17.23;49.42;98052.94;10494950;28;20038;-36
2024/01/31 15:59:28;;;;;;;4.17;2.67;;;;;;;17.25;53.74;98051.28;10493288;28;20043;-41
2024/01/31 16:04:29;;;;;;;7.30;2.80;;;;;;;17.25;54.61;98042.00;10493907;28;20086;-39
2024/01/31 16:09:29;;;;;;;3.00;1.90;;;;;;;17.26;50.64;98035.28;10499341;28;20028;-39
2024/01/31 16:14:29;;;;;;;6.73;2.50;;;;;;;17.25;52.62;98031.88;10492112;28;20032;-36
2024/01/31 16:19:30;;;;;;;3.90;2.20;;;;;;;17.24;49.46;98035.22;10500258;28;20282;-38
2024/01/31 16:24:30;;;;;;;3.58;2.30;;;;;;;17.23;50.17;98022.56;10493899;28;20502;-37
2024/01/31 16:29:31;;;;;;;8.43;2.63;;;;;;;17.25;49.47;98028.50;10498713;28;20059;-37
2024/01/31 16:34:31;;;;;;;4.90;2.55;;;;;;;17.20;51.18;98025.00;10492782;28;20285;-39
2024/01/31 16:39:31;;;;;;;5.33;2.57;;;;;;;17.11;50.39;98019.69;10495950;28;20032;-42
2024/01/31 16:44:32;;;;;;;3.10;2.37;;;;;;;17.18;51.32;98045.22;10489004;28;20302;-39
2024/01/31 16:49:32;;;;;;;10.40;3.22;;;;;;;17.21;51.40;98080.72;10498611;28;20128;-40
2024/01/31 16:54:33;;;;;;;11.07;4.20;;;;;;;17.04;50.80;98097.13;10490617;28;20724;-39
2024/01/31 16:59:33;;;;;;;16.93;3.77;;;;;;;17.12;50.84;98089.72;10487179;28;20048;-41
2024/01/31 17:04:34;;;;;;;14.97;2.90;;;;;;;17.20;51.13;98090.78;10490334;28;20390;-38
2024/01/31 17:09:34;;;;;;;6.70;3.03;;;;;;;17.21;50.46;98085.78;10496633;28;20298;-37
2024/01/31 17:14:34;;;;;;;8.07;2.63;;;;;;;17.24;49.79;98079.94;10488132;28;20032;-40
2024/01/31 17:19:35;;;;;;;7.23;2.83;;;;;;;17.26;49.37;98084.22;10490973;28;20035;-39
2024/01/31 17:24:35;;;;;;;6.47;2.37;;;;;;;17.25;49.58;98099.38;10496138;28;20335;-38
2024/01/31 17:29:36;;;;;;;6.05;2.63;;;;;;;17.26;49.44;98108.69;10503822;28;20035;-39
2024/01/31 17:34:36;;;;;;;8.47;2.50;;;;;;;17.23;49.29;98106.06;10490600;28;20459;-37
2024/01/31 17:39:36;;;;;;;4.10;2.03;;;;;;;17.24;49.04;98097.66;10493971;28;20035;-37
2024/01/31 17:44:37;;;;;;;4.50;2.13;;;;;;;17.23;48.92;98093.41;10483831;28;20116;-40
2024/01/31 17:49:38;;;;;;;4.38;2.30;;;;;;;17.23;48.91;98093.41;10484446;28;20036;-39
2024/01/31 17:54:39;;;;;;;6.25;2.33;;;;;;;17.25;48.96;98096.84;10489472;28;20709;-38
2024/01/31 17:59:41;;;;;;;3.55;1.80;;;;;;;17.25;49.08;98096.84;10487410;28;20028;-40
2024/01/31 18:04:42;;;;;;;4.57;1.67;;;;;;;17.26;48.99;98103.63;10486869;28;20036;-43
2024/01/31 18:09:42;;;;;;;5.13;2.13;;;;;;;17.24;51.50;98095.13;10491989;28;20033;-39
2024/01/31 18:14:44;;;;;;;7.33;2.30;;;;;;;17.25;50.27;98081.66;10488239;28;20282;-40
2024/01/31 18:19:46;;;;;;;5.72;2.15;;;;;;;17.26;51.26;98081.69;10483174;28;20286;-40
2024/01/31 18:24:47;;;;;;;3.30;1.70;;;;;;;17.26;52.00;98084.22;10495822;28;20402;-35
2024/01/31 18:29:47;;;;;;;5.77;2.23;;;;;;;17.27;52.69;98080.88;10479744;28;20036;-38
2024/01/31 18:34:48;;;;;;;5.20;2.10;;;;;;;17.26;52.94;98070.72;10486832;28;20047;-41
2024/01/31 18:39:49;;;;;;;3.33;2.05;;;;;;;17.22;53.81;98072.31;10493495;28;20770;-41
2024/01/31 18:44:50;;;;;;;4.10;2.25;;;;;;;17.17;53.58;98067.94;10488896;28;20040;-38
2024/01/31 18:49:50;;;;;;;2.42;1.70;;;;;;;17.25;53.40;98071.53;10486037;28;20040;-44
2024/01/31 18:54:50;;;;;;;5.37;2.10;;;;;;;17.21;54.97;98060.47;10489309;28;20032;-39
2024/01/31 18:59:51;;;;;;;4.93;2.80;;;;;;;17.25;53.46;98061.41;10487742;28;20029;-38
2024/01/31 19:04:52;;;;;;;3.22;2.20;;;;;;;17.22;54.45;98057.13;10486590;28;20287;-42
2024/01/31 19:09:53;;;;;;;4.80;1.98;;;;;;;17.23;54.55;98068.13;10486314;28;20047;-41
2024/01/31 19:14:53;;;;;;;2.93;1.90;;;;;;;17.23;54.49;98068.13;10482827;28;20380;-38
2024/01/31 19:19:54;;;;;;;4.43;1.85;;;;;;;17.26;53.00;98069.03;10473774;28;20028;-38
2024/01/31 19:24:55;;;;;;;3.55;2.20;;;;;;;17.26;51.80;98063.13;10482235;28;20059;-36
2024/01/31 19:29:57;;;;;;;3.80;2.00;;;;;;;17.28;52.97;98061.47;10479635;28;20580;-37
2024/01/31 19:34:57;;;;;;;3.28;2.10;;;;;;;17.28;51.34;98067.41;10480778;28;20681;-40
2024/01/31 19:39:58;;;;;;;8.43;2.33;;;;;;;17.29;51.39;98053.06;10482472;28;20036;-40
2024/01/31 19:44:58;;;;;;;14.07;2.93;;;;;;;17.23;52.70;98047.88;10481064;28;20040;-37
2024/01/31 19:49:58;;;;;;;8.93;2.80;;;;;;;17.25;53.55;98041.16;10479689;28;20029;-41
2024/01/31 19:54:59;;;;;;;15.40;2.90;;;;;;;17.27;51.60;98034.44;10482405;28;20033;-42
2024/01/31 19:59:59;;;;;;;12.97;2.50;;;;;;;17.27;51.23;98025.19;10478806;28;20041;-40
2024/01/31 20:04:59;;;;;;;8.63;2.20;;;;;;;17.30;50.75;98020.22;10480807;28;20047;-40
2024/01/31 20:10:00;;;;;;;11.97;2.40;;;;;;;17.34;53.05;98036.31;10482162;28;20032;-39
2024/01/31 20:15:00;;;;;;;10.30;3.43;;;;;;;17.36;54.82;98040.66;10479610;28;20036;-40
2024/01/31 20:20:01;;;;;;;6.27;2.87;;;;;;;17.23;52.30;98050.41;10480520;28;20763;-38
2024/01/31 20:25:02;;;;;;;8.75;2.75;;;;;;;17.29;56.45;98032.81;10481853;28;20036;-37
2024/01/31 20:30:03;;;;;;;9.23;2.33;;;;;;;17.29;56.45;98032.81;10485934;28;20219;-40
2024/01/31 20:35:04;;;;;;;5.03;2.30;;;;;;;17.29;52.17;98045.47;10488166;28;20248;-39
2024/01/31 20:40:05;;;;;;;3.13;2.15;;;;;;;17.29;51.98;98043.81;10489004;28;20051;-37
2024/01/31 20:45:06;;;;;;;7.97;2.20;;;;;;;17.30;54.07;98039.59;10485249;28;20513;-39
2024/01/31 20:50:07;;;;;;;8.70;3.17;;;;;;;17.30;55.22;98045.50;10488417;28;20035;-39
2024/01/31 20:55:07;;;;;;;5.75;2.38;;;;;;;17.30;53.61;98050.56;10488235;28;20037;-37
2024/01/31 21:00:08;;;;;;;3.92;1.85;;;;;;;17.28;51.92;98052.22;10485377;28;20074;-40
2024/01/31 21:05:09;;;;;;;6.53;2.17;;;;;;;17.29;51.29;98053.94;10488827;28;20033;-40
2024/01/31 21:10:10;;;;;;;7.97;2.30;;;;;;;17.29;52.06;98050.53;10489336;28;20033;-39
2024/01/31 21:15:11;;;;;;;4.13;2.42;;;;;;;17.29;51.34;98053.94;10484442;28;20060;-39
2024/01/31 21:20:11;;;;;;;3.72;2.55;;;;;;;17.28;51.46;98056.41;10489033;28;20131;-37
2024/01/31 21:25:12;;;;;;;4.20;1.95;;;;;;;17.28;51.97;98052.22;10486855;28;20037;-39
2024/01/31 21:30:12;;;;;;;3.57;2.00;;;;;;;17.29;51.53;98048.00;10483518;28;20046;-38
2024/01/31 21:35:13;;;;;;;5.07;2.13;;;;;;;17.29;51.30;98048.00;10486964;28;20024;-38
2024/01/31 21:40:15;;;;;;;3.13;1.80;;;;;;;17.27;51.21;98031.94;10485654;28;20032;-39
2024/01/31 21:45:15;;;;;;;3.40;1.58;;;;;;;17.28;51.27;98026.03;10484341;28;20538;-39
2024/01/31 21:50:15;;;;;;;4.50;1.70;;;;;;;17.28;51.21;98026.03;10487785;28;20020;-39
2024/01/31 21:55:19;;;;;;;5.83;2.33;;;;;;;17.24;51.25;98017.50;10491290;28;20044;-39
2024/01/31 22:00:19;;;;;;;5.75;2.22;;;;;;;17.23;53.27;98023.41;10489074;28;20830;-36
2024/01/31 22:05:19;;;;;;;2.20;1.70;;;;;;;17.23;53.33;98017.50;10489275;28;20115;-38
2024/01/31 22:10:20;;;;;;;3.67;2.50;;;;;;;17.20;53.88;98007.28;10490889;28;20308;-41
2024/01/31 22:15:20;;;;;;;4.13;2.80;;;;;;;17.16;60.06;97988.63;10488711;28;20106;-40
2024/01/31 22:20:21;;;;;;;3.40;2.33;;;;;;;17.14;60.45;97981.84;10491718;28;20032;-40
2024/01/31 22:25:21;;;;;;;5.00;2.15;;;;;;;17.11;60.92;97990.19;10487328;28;20039;-40
2024/01/31 22:30:21;;;;;;;3.33;2.70;;;;;;;17.11;61.58;97999.44;10487188;28;20036;-39
2024/01/31 22:35:22;;;;;;;5.00;2.43;;;;;;;17.10;61.33;97993.56;10488225;28;20092;-37
2024/01/31 22:40:25;;;;;;;4.60;2.50;;;;;;;17.10;61.02;97998.59;10487766;28;20037;-36
2024/01/31 22:45:26;;;;;;;3.25;2.17;;;;;;;17.12;61.00;97985.97;10485492;28;20024;-37
2024/01/31 22:50:26;;;;;;;5.33;2.80;;;;;;;17.12;60.61;97996.09;10487896;28;20024;-37
2024/01/31 22:55:26;;;;;;;3.20;2.23;;;;;;;17.12;60.43;97989.38;10487434;28;20033;-36
2024/01/31 23:00:27;;;;;;;5.30;2.53;;;;;;;17.10;60.87;97969.91;10485718;28;20525;-39
2024/01/31 23:05:27;;;;;;;2.40;1.87;;;;;;;17.13;59.88;97975.03;10488571;28;20035;-36
2024/01/31 23:10:27;;;;;;;5.17;2.13;;;;;;;17.07;59.85;97968.16;10486994;28;20123;-37
2024/01/31 23:15:28;;;;;;;6.67;2.27;;;;;;;17.10;59.19;97978.38;10487841;28;20494;-36